sensor_id;sensor_type;location;lat;lon;timestamp;pressure;altitude;pressure_sealevel;temperature;humidity
60170;BME280;46042;49.444;6.862;2023-01-27T00:00:52;98998.44;;;-0.98;100.00
60170;BME280;46042;49.444;6.862;2023-01-27T00:03:19;99002.72;;;-0.95;100.00
60170;BME280;46042;49.444;6.862;2023-01-27T00:05:46;99001.00;;;-0.96;100.00
60170;BME280;46042;49.444;6.862;2023-01-27T00:08:14;99000.19;;;-1.00;100.00
60170;BME280;46042;49.444;6.862;2023-01-27T00:10:40;99002.81;;;-1.02;100.00
60170;BME280;46042;49.444;6.862;2023-01-27T00:13:10;98998.53;;;-1.04;100.00
60170;BME280;46042;49.444;6.862;2023-01-27T00:15:53;98999.34;;;-1.02;100.00
60170;BME280;46042;49.444;6.862;2023-01-27T00:18:20;99001.06;;;-1.01;100.00
60170;BME280;46042;49.444;6.862;2023-01-27T00:20:46;98998.47;;;-1.01;100.00
60170;BME280;46042;49.444;6.862;2023-01-27T00:23:31;99002.72;;;-0.95;100.00
60170;BME280;46042;49.444;6.862;2023-01-27T00:26:18;98998.44;;;-0.96;100.00
60170;BME280;46042;49.444;6.862;2023-01-27T00:28:46;99000.97;;;-0.95;100.00
60170;BME280;46042;49.444;6.862;2023-01-27T00:31:15;99000.13;;;-0.94;100.00
60170;BME280;46042;49.444;6.862;2023-01-27T00:34:01;99002.66;;;-0.91;100.00
60170;BME280;46042;49.444;6.862;2023-01-27T00:36:35;99000.09;;;-0.91;100.00
60170;BME280;46042;49.444;6.862;2023-01-27T00:39:03;98992.31;;;-0.91;100.00
60170;BME280;46042;49.444;6.862;2023-01-27T00:41:30;98990.63;;;-0.95;100.00
60170;BME280;46042;49.444;6.862;2023-01-27T00:44:00;98990.69;;;-0.98;100.00
60170;BME280;46042;49.444;6.862;2023-01-27T00:46:27;98997.53;;;-0.95;100.00
60170;BME280;46042;49.444;6.862;2023-01-27T00:48:53;98985.47;;;-0.95;100.00
60170;BME280;46042;49.444;6.862;2023-01-27T00:51:20;98987.19;;;-0.94;100.00
60170;BME280;46042;49.444;6.862;2023-01-27T00:53:47;98990.63;;;-0.92;100.00
60170;BME280;46042;49.444;6.862;2023-01-27T00:56:14;98996.66;;;-0.93;100.00
60170;BME280;46042;49.444;6.862;2023-01-27T00:58:41;98992.38;;;-0.94;100.00
60170;BME280;46042;49.444;6.862;2023-01-27T01:01:10;98984.59;;;-0.94;100.00
60170;BME280;46042;49.444;6.862;2023-01-27T01:03:37;98987.16;;;-0.92;100.00
60170;BME280;46042;49.444;6.862;2023-01-27T01:06:06;98985.44;;;-0.92;100.00
60170;BME280;46042;49.444;6.862;2023-01-27T01:08:35;98985.44;;;-0.92;100.00
60170;BME280;46042;49.444;6.862;2023-01-27T01:11:03;98993.22;;;-0.93;100.00
60170;BME280;46042;49.444;6.862;2023-01-27T01:13:31;98992.31;;;-0.92;100.00
60170;BME280;46042;49.444;6.862;2023-01-27T01:16:07;98979.41;;;-0.92;100.00
60170;BME280;46042;49.444;6.862;2023-01-27T01:18:34;98984.56;;;-0.92;100.00
60170;BME280;46042;49.444;6.862;2023-01-27T01:21:01;98987.19;;;-0.94;100.00
60170;BME280;46042;49.444;6.862;2023-01-27T01:23:27;98989.78;;;-0.94;100.00
60170;BME280;46042;49.444;6.862;2023-01-27T01:25:55;98988.91;;;-0.93;100.00
60170;BME280;46042;49.444;6.862;2023-01-27T01:28:23;98990.63;;;-0.93;100.00
60170;BME280;46042;49.444;6.862;2023-01-27T01:30:50;98993.19;;;-0.92;100.00
60170;BME280;46042;49.444;6.862;2023-01-27T01:33:17;98991.50;;;-0.94;100.00
60170;BME280;46042;49.444;6.862;2023-01-27T01:35:44;98995.78;;;-0.93;100.00
60170;BME280;46042;49.444;6.862;2023-01-27T01:38:10;98987.19;;;-0.94;100.00
60170;BME280;46042;49.444;6.862;2023-01-27T01:40:42;98979.41;;;-0.92;100.00
60170;BME280;46042;49.444;6.862;2023-01-27T01:43:17;98982.84;;;-0.92;100.00
60170;BME280;46042;49.444;6.862;2023-01-27T01:45:47;98993.09;;;-0.87;100.00
60170;BME280;46042;49.444;6.862;2023-01-27T01:51:20;98990.53;;;-0.87;100.00
60170;BME280;46042;49.444;6.862;2023-01-27T01:54:10;98987.91;;;-0.84;100.00
60170;BME280;46042;49.444;6.862;2023-01-27T01:56:44;98983.63;;;-0.85;100.00
60170;BME280;46042;49.444;6.862;2023-01-27T01:59:27;98975.97;;;-0.93;100.00
60170;BME280;46042;49.444;6.862;2023-01-27T02:02:00;98985.47;;;-0.95;100.00
60170;BME280;46042;49.444;6.862;2023-01-27T02:04:33;98980.22;;;-0.90;100.00
60170;BME280;46042;49.444;6.862;2023-01-27T02:07:16;98982.75;;;-0.86;100.00
60170;BME280;46042;49.444;6.862;2023-01-27T02:09:43;98976.72;;;-0.86;100.00
60170;BME280;46042;49.444;6.862;2023-01-27T02:12:10;98970.69;;;-0.87;100.00
60170;BME280;46042;49.444;6.862;2023-01-27T02:14:38;98983.63;;;-0.85;100.00
60170;BME280;46042;49.444;6.862;2023-01-27T02:17:04;98974.16;;;-0.88;100.00
60170;BME280;46042;49.444;6.862;2023-01-27T02:20:08;98974.13;;;-0.84;100.00
60170;BME280;46042;49.444;6.862;2023-01-27T02:23:18;98973.25;;;-0.83;100.00
60170;BME280;46042;49.444;6.862;2023-01-27T02:28:00;98971.47;;;-0.81;100.00
60170;BME280;46042;49.444;6.862;2023-01-27T02:30:27;98974.06;;;-0.80;100.00
60170;BME280;46042;49.444;6.862;2023-01-27T02:32:54;98957.66;;;-0.79;100.00
60170;BME280;46042;49.444;6.862;2023-01-27T02:35:31;98955.91;;;-0.78;100.00
60170;BME280;46042;49.444;6.862;2023-01-27T02:37:59;98955.06;;;-0.79;100.00
60170;BME280;46042;49.444;6.862;2023-01-27T02:40:28;98968.94;;;-0.84;100.00
60170;BME280;46042;49.444;6.862;2023-01-27T02:42:56;98964.59;;;-0.81;100.00
60170;BME280;46042;49.444;6.862;2023-01-27T02:45:23;98968.00;;;-0.79;100.00
60170;BME280;46042;49.444;6.862;2023-01-27T02:47:50;98963.66;;;-0.78;100.00
60170;BME280;46042;49.444;6.862;2023-01-27T02:50:17;98967.97;;;-0.77;100.00
60170;BME280;46042;49.444;6.862;2023-01-27T02:52:43;98960.19;;;-0.76;100.00
60170;BME280;46042;49.444;6.862;2023-01-27T02:55:10;98971.44;;;-0.77;100.00
60170;BME280;46042;49.444;6.862;2023-01-27T02:57:37;98951.59;;;-0.78;100.00
60170;BME280;46042;49.444;6.862;2023-01-27T03:00:03;98956.72;;;-0.75;100.00
60170;BME280;46042;49.444;6.862;2023-01-27T03:02:30;98963.63;;;-0.74;100.00
60170;BME280;46042;49.444;6.862;2023-01-27T03:04:57;98959.31;;;-0.75;100.00
60170;BME280;46042;49.444;6.862;2023-01-27T03:07:24;98967.06;;;-0.73;100.00
60170;BME280;46042;49.444;6.862;2023-01-27T03:09:50;98956.69;;;-0.72;100.00
60170;BME280;46042;49.444;6.862;2023-01-27T03:12:17;98953.25;;;-0.74;100.00
60170;BME280;46042;49.444;6.862;2023-01-27T03:14:50;98969.63;;;-0.72;100.00
60170;BME280;46042;49.444;6.862;2023-01-27T03:17:37;98962.72;;;-0.73;100.00
60170;BME280;46042;49.444;6.862;2023-01-27T03:20:22;98963.66;;;-0.77;100.00
60170;BME280;46042;49.444;6.862;2023-01-27T03:22:49;98954.19;;;-0.76;100.00
60170;BME280;46042;49.444;6.862;2023-01-27T03:25:16;98963.63;;;-0.74;100.00
60170;BME280;46042;49.444;6.862;2023-01-27T03:27:42;98967.06;;;-0.73;100.00
60170;BME280;46042;49.444;6.862;2023-01-27T03:30:09;98970.44;;;-0.69;100.00
60170;BME280;46042;49.444;6.862;2023-01-27T03:32:36;98963.56;;;-0.70;100.00
60170;BME280;46042;49.444;6.862;2023-01-27T03:35:03;98963.56;;;-0.69;100.00
60170;BME280;46042;49.444;6.862;2023-01-27T03:37:30;98960.09;;;-0.68;100.00
60170;BME280;46042;49.444;6.862;2023-01-27T03:40:15;98967.84;;;-0.66;100.00
60170;BME280;46042;49.444;6.862;2023-01-27T03:43:02;98959.19;;;-0.65;100.00
60170;BME280;46042;49.444;6.862;2023-01-27T03:45:48;98962.63;;;-0.63;100.00
60170;BME280;46042;49.444;6.862;2023-01-27T03:48:35;98963.50;;;-0.66;100.00
60170;BME280;46042;49.444;6.862;2023-01-27T03:51:04;98963.50;;;-0.64;100.00
60170;BME280;46042;49.444;6.862;2023-01-27T03:53:31;98964.38;;;-0.65;100.00
60170;BME280;46042;49.444;6.862;2023-01-27T03:55:58;98959.97;;;-0.62;100.00
60170;BME280;46042;49.444;6.862;2023-01-27T03:58:30;98955.69;;;-0.63;100.00
60170;BME280;46042;49.444;6.862;2023-01-27T04:00:59;98960.03;;;-0.63;100.00
60170;BME280;46042;49.444;6.862;2023-01-27T04:03:29;98963.44;;;-0.61;100.00
60170;BME280;46042;49.444;6.862;2023-01-27T04:06:18;98959.97;;;-0.62;100.00
60170;BME280;46042;49.444;6.862;2023-01-27T04:09:04;98954.91;;;-0.66;100.00
60170;BME280;46042;49.444;6.862;2023-01-27T04:11:31;98966.03;;;-0.61;100.00
60170;BME280;46042;49.444;6.862;2023-01-27T04:14:16;98958.28;;;-0.63;100.00
60170;BME280;46042;49.444;6.862;2023-01-27T04:16:44;98958.28;;;-0.63;100.00
60170;BME280;46042;49.444;6.862;2023-01-27T04:19:11;98954.78;;;-0.60;100.00
60170;BME280;46042;49.444;6.862;2023-01-27T04:21:39;98956.50;;;-0.61;100.00
60170;BME280;46042;49.444;6.862;2023-01-27T04:24:06;98959.97;;;-0.62;100.00
60170;BME280;46042;49.444;6.862;2023-01-27T04:26:34;98959.16;;;-0.62;100.00
60170;BME280;46042;49.444;6.862;2023-01-27T04:29:02;98954.81;;;-0.62;100.00
60170;BME280;46042;49.444;6.862;2023-01-27T04:31:30;98966.91;;;-0.62;100.00
60170;BME280;46042;49.444;6.862;2023-01-27T04:33:58;98961.69;;;-0.59;100.00
60170;BME280;46042;49.444;6.862;2023-01-27T04:36:24;98957.38;;;-0.60;100.00
60170;BME280;46042;49.444;6.862;2023-01-27T04:38:51;98958.25;;;-0.60;100.00
60170;BME280;46042;49.444;6.862;2023-01-27T04:41:18;98951.38;;;-0.64;100.00
60170;BME280;46042;49.444;6.862;2023-01-27T04:43:45;98964.31;;;-0.62;100.00
60170;BME280;46042;49.444;6.862;2023-01-27T04:46:11;98962.56;;;-0.62;100.00
60170;BME280;46042;49.444;6.862;2023-01-27T04:48:38;98961.69;;;-0.59;100.00
60170;BME280;46042;49.444;6.862;2023-01-27T04:51:04;98955.78;;;-0.69;100.00
60170;BME280;46042;49.444;6.862;2023-01-27T04:53:31;98961.75;;;-0.64;100.00
60170;BME280;46042;49.444;6.862;2023-01-27T04:56:06;98966.13;;;-0.67;100.00
60170;BME280;46042;49.444;6.862;2023-01-27T04:58:40;98970.38;;;-0.63;100.00
60170;BME280;46042;49.444;6.862;2023-01-27T05:01:06;98972.09;;;-0.64;100.00
60170;BME280;46042;49.444;6.862;2023-01-27T05:03:33;98970.34;;;-0.62;100.00
60170;BME280;46042;49.444;6.862;2023-01-27T05:05:59;98976.38;;;-0.61;100.00
60170;BME280;46042;49.444;6.862;2023-01-27T05:08:26;98981.56;;;-0.63;100.00
60170;BME280;46042;49.444;6.862;2023-01-27T05:10:53;98977.22;;;-0.61;100.00
60170;BME280;46042;49.444;6.862;2023-01-27T05:13:19;98988.44;;;-0.60;100.00
60170;BME280;46042;49.444;6.862;2023-01-27T05:15:46;98981.50;;;-0.58;100.00
60170;BME280;46042;49.444;6.862;2023-01-27T05:18:13;98991.84;;;-0.58;100.00
60170;BME280;46042;49.444;6.862;2023-01-27T05:20:40;98988.38;;;-0.57;100.00
60170;BME280;46042;49.444;6.862;2023-01-27T05:23:07;98989.25;;;-0.58;100.00
60170;BME280;46042;49.444;6.862;2023-01-27T05:25:52;98991.84;;;-0.56;100.00
60170;BME280;46042;49.444;6.862;2023-01-27T05:28:19;98994.38;;;-0.55;100.00
60170;BME280;46042;49.444;6.862;2023-01-27T05:30:45;99003.03;;;-0.54;100.00
60170;BME280;46042;49.444;6.862;2023-01-27T05:33:12;99000.44;;;-0.56;100.00
60170;BME280;46042;49.444;6.862;2023-01-27T05:35:38;99000.47;;;-0.58;100.00
60170;BME280;46042;49.444;6.862;2023-01-27T05:38:05;99001.38;;;-0.59;100.00
60170;BME280;46042;49.444;6.862;2023-01-27T05:40:31;99005.66;;;-0.59;100.00
60170;BME280;46042;49.444;6.862;2023-01-27T05:42:58;99006.53;;;-0.59;100.00
60170;BME280;46042;49.444;6.862;2023-01-27T05:45:25;99012.59;;;-0.60;100.00
60170;BME280;46042;49.444;6.862;2023-01-27T05:47:51;98996.22;;;-0.62;100.00
60170;BME280;46042;49.444;6.862;2023-01-27T05:50:18;99010.06;;;-0.66;100.00
60170;BME280;46042;49.444;6.862;2023-01-27T05:52:45;99016.06;;;-0.62;100.00
60170;BME280;46042;49.444;6.862;2023-01-27T05:55:11;99013.44;;;-0.61;100.00
60170;BME280;46042;49.444;6.862;2023-01-27T05:57:38;99021.19;;;-0.61;100.00
60170;BME280;46042;49.444;6.862;2023-01-27T06:00:05;99030.66;;;-0.58;100.00
60170;BME280;46042;49.444;6.862;2023-01-27T06:02:32;99024.59;;;-0.57;100.00
60170;BME280;46042;49.444;6.862;2023-01-27T06:04:59;99031.56;;;-0.61;100.00
60170;BME280;46042;49.444;6.862;2023-01-27T06:07:26;99033.34;;;-0.66;100.00
60170;BME280;46042;49.444;6.862;2023-01-27T06:09:52;99039.44;;;-0.68;100.00
60170;BME280;46042;49.444;6.862;2023-01-27T06:12:19;99039.47;;;-0.70;100.00
60170;BME280;46042;49.444;6.862;2023-01-27T06:14:45;99036.03;;;-0.72;100.00
60170;BME280;46042;49.444;6.862;2023-01-27T06:17:12;99039.47;;;-0.72;100.00
60170;BME280;46042;49.444;6.862;2023-01-27T06:19:39;99036.88;;;-0.70;100.00
60170;BME280;46042;49.444;6.862;2023-01-27T06:22:05;99034.28;;;-0.72;100.00
60170;BME280;46042;49.444;6.862;2023-01-27T06:24:32;99030.88;;;-0.72;100.00
60170;BME280;46042;49.444;6.862;2023-01-27T06:26:58;99041.19;;;-0.70;100.00
60170;BME280;46042;49.444;6.862;2023-01-27T06:29:25;99039.50;;;-0.73;100.00
60170;BME280;46042;49.444;6.862;2023-01-27T06:31:51;99046.41;;;-0.74;100.00
60170;BME280;46042;49.444;6.862;2023-01-27T06:34:18;99046.38;;;-0.72;100.00
60170;BME280;46042;49.444;6.862;2023-01-27T06:36:45;99046.34;;;-0.70;100.00
60170;BME280;46042;49.444;6.862;2023-01-27T06:39:11;99058.41;;;-0.69;100.00
60170;BME280;46042;49.444;6.862;2023-01-27T06:41:38;99051.53;;;-0.70;100.00
60170;BME280;46042;49.444;6.862;2023-01-27T06:44:05;99062.75;;;-0.72;100.00
60170;BME280;46042;49.444;6.862;2023-01-27T06:46:31;99056.78;;;-0.75;100.00
60170;BME280;46042;49.444;6.862;2023-01-27T06:48:59;99059.38;;;-0.75;100.00
60170;BME280;46042;49.444;6.862;2023-01-27T06:51:27;99059.38;;;-0.78;100.00
60170;BME280;46042;49.444;6.862;2023-01-27T06:53:56;99058.59;;;-0.83;100.00
60170;BME280;46042;49.444;6.862;2023-01-27T06:56:23;99060.25;;;-0.79;100.00
60170;BME280;46042;49.444;6.862;2023-01-27T06:58:51;99061.09;;;-0.77;100.00
60170;BME280;46042;49.444;6.862;2023-01-27T07:01:20;99064.53;;;-0.75;100.00
60170;BME280;46042;49.444;6.862;2023-01-27T07:03:49;99073.13;;;-0.73;100.00
60170;BME280;46042;49.444;6.862;2023-01-27T07:06:18;99064.53;;;-0.75;100.00
60170;BME280;46042;49.444;6.862;2023-01-27T07:08:47;99063.72;;;-0.79;100.00
60170;BME280;46042;49.444;6.862;2023-01-27T07:11:16;99065.44;;;-0.76;100.00
60170;BME280;46042;49.444;6.862;2023-01-27T07:13:44;99065.44;;;-0.76;100.00
60170;BME280;46042;49.444;6.862;2023-01-27T07:16:15;99068.84;;;-0.76;100.00
60170;BME280;46042;49.444;6.862;2023-01-27T07:18:45;99071.44;;;-0.74;100.00
60170;BME280;46042;49.444;6.862;2023-01-27T07:21:12;99074.91;;;-0.75;100.00
60170;BME280;46042;49.444;6.862;2023-01-27T07:23:39;99079.16;;;-0.73;100.00
60170;BME280;46042;49.444;6.862;2023-01-27T07:26:06;99081.69;;;-0.69;100.00
60170;BME280;46042;49.444;6.862;2023-01-27T07:28:48;99087.72;;;-0.67;100.00
60170;BME280;46042;49.444;6.862;2023-01-27T07:31:15;99093.75;;;-0.67;100.00
60170;BME280;46042;49.444;6.862;2023-01-27T07:33:42;99087.69;;;-0.66;100.00
60170;BME280;46042;49.444;6.862;2023-01-27T07:36:08;99097.13;;;-0.62;100.00
60170;BME280;46042;49.444;6.862;2023-01-27T07:38:35;99096.28;;;-0.62;100.00
60170;BME280;46042;49.444;6.862;2023-01-27T07:41:03;99102.28;;;-0.62;100.00
60170;BME280;46042;49.444;6.862;2023-01-27T07:43:32;99102.28;;;-0.60;100.00
60170;BME280;46042;49.444;6.862;2023-01-27T07:45:59;99105.75;;;-0.61;100.00
60170;BME280;46042;49.444;6.862;2023-01-27T07:48:26;99105.84;;;-0.67;100.00
60170;BME280;46042;49.444;6.862;2023-01-27T07:50:52;99110.09;;;-0.65;100.00
60170;BME280;46042;49.444;6.862;2023-01-27T07:53:19;99107.56;;;-0.66;100.00
60170;BME280;46042;49.444;6.862;2023-01-27T07:55:46;99105.84;;;-0.69;100.00
60170;BME280;46042;49.444;6.862;2023-01-27T07:58:13;99099.81;;;-0.68;100.00
60170;BME280;46042;49.444;6.862;2023-01-27T08:00:42;99105.84;;;-0.67;100.00
60170;BME280;46042;49.444;6.862;2023-01-27T08:03:20;99094.63;;;-0.68;100.00
60170;BME280;46042;49.444;6.862;2023-01-27T08:05:48;99109.22;;;-0.64;100.00
60170;BME280;46042;49.444;6.862;2023-01-27T08:08:29;99103.25;;;-0.67;100.00
60170;BME280;46042;49.444;6.862;2023-01-27T08:11:03;99114.41;;;-0.64;100.00
60170;BME280;46042;49.444;6.862;2023-01-27T08:13:34;99108.28;;;-0.58;100.00
60170;BME280;46042;49.444;6.862;2023-01-27T08:16:14;99102.19;;;-0.54;100.00
60170;BME280;46042;49.444;6.862;2023-01-27T08:18:42;99115.97;;;-0.52;100.00
60170;BME280;46042;49.444;6.862;2023-01-27T08:21:11;99106.47;;;-0.50;100.00
60170;BME280;46042;49.444;6.862;2023-01-27T08:23:38;99106.41;;;-0.45;100.00
60170;BME280;46042;49.444;6.862;2023-01-27T08:26:06;99105.50;;;-0.41;100.00
60170;BME280;46042;49.444;6.862;2023-01-27T08:28:52;99109.75;;;-0.37;100.00
60170;BME280;46042;49.444;6.862;2023-01-27T08:31:19;99100.28;;;-0.38;100.00
60170;BME280;46042;49.444;6.862;2023-01-27T08:33:50;99114.06;;;-0.36;100.00
60170;BME280;46042;49.444;6.862;2023-01-27T08:36:18;99112.28;;;-0.32;100.00
60170;BME280;46042;49.444;6.862;2023-01-27T08:38:45;99110.53;;;-0.32;100.00
60170;BME280;46042;49.444;6.862;2023-01-27T08:41:24;99117.41;;;-0.31;100.00
60170;BME280;46042;49.444;6.862;2023-01-27T08:43:52;99127.72;;;-0.24;100.00
60170;BME280;46042;49.444;6.862;2023-01-27T08:46:19;99118.34;;;-0.33;100.00
60170;BME280;46042;49.444;6.862;2023-01-27T08:48:46;99126.84;;;-0.25;100.00
60170;BME280;46042;49.444;6.862;2023-01-27T08:51:14;99130.31;;;-0.26;100.00
60170;BME280;46042;49.444;6.862;2023-01-27T08:53:41;99145.78;;;-0.23;100.00
60170;BME280;46042;49.444;6.862;2023-01-27T08:56:13;99141.41;;;-0.16;100.00
60170;BME280;46042;49.444;6.862;2023-01-27T08:58:41;99137.88;;;-0.12;100.00
60170;BME280;46042;49.444;6.862;2023-01-27T09:01:08;99135.22;;;-0.07;100.00
60170;BME280;46042;49.444;6.862;2023-01-27T09:03:36;99140.25;;;0.04;100.00
60170;BME280;46042;49.444;6.862;2023-01-27T09:06:04;99143.59;;;0.12;100.00
60170;BME280;46042;49.444;6.862;2023-01-27T09:08:32;99141.94;;;0.06;100.00
60170;BME280;46042;49.444;6.862;2023-01-27T09:10:59;99145.31;;;0.13;100.00
60170;BME280;46042;49.444;6.862;2023-01-27T09:13:26;99148.81;;;0.09;100.00
60170;BME280;46042;49.444;6.862;2023-01-27T09:15:53;99159.03;;;0.17;100.00
60170;BME280;46042;49.444;6.862;2023-01-27T09:18:20;99157.28;;;0.20;100.00
60170;BME280;46042;49.444;6.862;2023-01-27T09:20:47;99159.03;;;0.18;100.00
60170;BME280;46042;49.444;6.862;2023-01-27T09:23:13;99164.19;;;0.20;100.00
60170;BME280;46042;49.444;6.862;2023-01-27T09:25:40;99166.75;;;0.23;100.00
60170;BME280;46042;49.444;6.862;2023-01-27T09:28:07;99166.63;;;0.31;100.00
60170;BME280;46042;49.444;6.862;2023-01-27T09:30:43;99163.03;;;0.39;100.00
60170;BME280;46042;49.444;6.862;2023-01-27T09:33:13;99162.28;;;0.33;100.00
60170;BME280;46042;49.444;6.862;2023-01-27T09:35:45;99157.84;;;0.38;100.00
60170;BME280;46042;49.444;6.862;2023-01-27T09:38:14;99160.28;;;0.49;100.00
60170;BME280;46042;49.444;6.862;2023-01-27T09:40:49;99166.28;;;0.52;100.00
60170;BME280;46042;49.444;6.862;2023-01-27T10:00:10;99191.19;;;0.60;100.00
60170;BME280;46042;49.444;6.862;2023-01-27T10:05:52;99184.28;;;0.60;100.00
60170;BME280;46042;49.444;6.862;2023-01-27T10:08:44;99186.13;;;0.53;100.00
60170;BME280;46042;49.444;6.862;2023-01-27T10:51:36;99167.94;;;1.05;100.00
60170;BME280;46042;49.444;6.862;2023-01-27T10:54:16;99176.63;;;1.04;100.00
60170;BME280;46042;49.444;6.862;2023-01-27T10:56:52;99170.41;;;1.13;100.00
60170;BME280;46042;49.444;6.862;2023-01-27T10:59:25;99182.50;;;1.14;100.00
60170;BME280;46042;49.444;6.862;2023-01-27T11:05:04;99172.84;;;1.22;100.00
60170;BME280;46042;49.444;6.862;2023-01-27T11:07:42;99168.56;;;1.18;100.00
60170;BME280;46042;49.444;6.862;2023-01-27T11:10:15;99162.47;;;1.22;100.00
60170;BME280;46042;49.444;6.862;2023-01-27T11:12:46;99159.88;;;1.21;100.00
60170;BME280;46042;49.444;6.862;2023-01-27T11:15:16;99156.31;;;1.26;100.00
60170;BME280;46042;49.444;6.862;2023-01-27T11:17:50;99165.69;;;1.34;100.00
60170;BME280;46042;49.444;6.862;2023-01-27T11:20:38;99168.19;;;1.38;100.00
60170;BME280;46042;49.444;6.862;2023-01-27T11:28:59;99167.00;;;1.53;100.00
60170;BME280;46042;49.444;6.862;2023-01-27T11:31:57;99170.31;;;1.62;100.00
60170;BME280;46042;49.444;6.862;2023-01-27T11:34:36;99168.53;;;1.65;100.00
60170;BME280;46042;49.444;6.862;2023-01-27T11:37:46;99156.22;;;1.74;100.00
60170;BME280;46042;49.444;6.862;2023-01-27T11:40:21;99155.22;;;1.79;100.00
60170;BME280;46042;49.444;6.862;2023-01-27T11:42:54;99159.53;;;1.80;100.00
60170;BME280;46042;49.444;6.862;2023-01-27T11:45:23;99151.81;;;1.77;100.00
60170;BME280;46042;49.444;6.862;2023-01-27T11:47:55;99157.84;;;1.79;100.00
60170;BME280;46042;49.444;6.862;2023-01-27T11:50:27;99156.88;;;1.83;100.00
60170;BME280;46042;49.444;6.862;2023-01-27T11:55:42;99152.50;;;1.85;100.00
60170;BME280;46042;49.444;6.862;2023-01-27T12:00:54;99152.22;;;1.99;100.00
60170;BME280;46042;49.444;6.862;2023-01-27T12:04:08;99150.38;;;2.03;100.00
60170;BME280;46042;49.444;6.862;2023-01-27T12:06:15;99144.59;;;1.92;100.00
60170;BME280;46042;49.444;6.862;2023-01-27T12:08:45;99143.06;;;1.81;100.00
60170;BME280;46042;49.444;6.862;2023-01-27T12:11:25;99150.19;;;1.72;100.00
60170;BME280;46042;49.444;6.862;2023-01-27T12:16:20;99143.94;;;1.82;100.00
60170;BME280;46042;49.444;6.862;2023-01-27T12:18:51;99149.00;;;1.87;100.00
60170;BME280;46042;49.444;6.862;2023-01-27T12:21:20;99149.84;;;1.89;100.00
60170;BME280;46042;49.444;6.862;2023-01-27T12:23:59;99143.84;;;1.85;100.00
60170;BME280;46042;49.444;6.862;2023-01-27T12:26:41;99146.28;;;1.93;100.00
60170;BME280;46042;49.444;6.862;2023-01-27T12:29:20;99147.09;;;1.95;100.00
60170;BME280;46042;49.444;6.862;2023-01-27T12:31:50;99139.38;;;1.92;100.00
60170;BME280;46042;49.444;6.862;2023-01-27T12:34:31;99139.50;;;1.85;100.00
60170;BME280;46042;49.444;6.862;2023-01-27T12:36:59;99143.22;;;1.74;100.00
60170;BME280;46042;49.444;6.862;2023-01-27T12:39:44;99133.63;;;1.77;100.00
60170;BME280;46042;49.444;6.862;2023-01-27T12:42:39;99130.22;;;1.75;100.00
60170;BME280;46042;49.444;6.862;2023-01-27T12:45:24;99125.03;;;1.74;100.00
60170;BME280;46042;49.444;6.862;2023-01-27T12:48:18;99126.31;;;1.95;100.00
60170;BME280;46042;49.444;6.862;2023-01-27T12:53:23;99130.78;;;1.90;100.00
60170;BME280;46042;49.444;6.862;2023-01-27T12:56:08;99131.19;;;1.69;100.00
60170;BME280;46042;49.444;6.862;2023-01-27T12:58:57;99130.41;;;1.66;100.00
60170;BME280;46042;49.444;6.862;2023-01-27T13:01:35;99135.59;;;1.67;100.00
60170;BME280;46042;49.444;6.862;2023-01-27T13:04:16;99126.75;;;1.75;100.00
60170;BME280;46042;49.444;6.862;2023-01-27T13:06:52;99135.31;;;1.80;100.00
60170;BME280;46042;49.444;6.862;2023-01-27T13:11:50;99129.28;;;1.78;100.00
60170;BME280;46042;49.444;6.862;2023-01-27T13:14:17;99131.84;;;1.81;100.00
60170;BME280;46042;49.444;6.862;2023-01-27T13:16:52;99132.66;;;1.81;100.00
60170;BME280;46042;49.444;6.862;2023-01-27T13:19:23;99136.00;;;1.88;100.00
60170;BME280;46042;49.444;6.862;2023-01-27T13:21:56;99128.75;;;2.03;100.00
60170;BME280;46042;49.444;6.862;2023-01-27T13:24:32;99130.53;;;1.99;100.00
60170;BME280;46042;49.444;6.862;2023-01-27T13:27:01;99138.16;;;2.08;100.00
60170;BME280;46042;49.444;6.862;2023-01-27T13:29:32;99129.56;;;2.05;100.00
60170;BME280;46042;49.444;6.862;2023-01-27T13:32:08;99127.84;;;2.04;100.00
60170;BME280;46042;49.444;6.862;2023-01-27T13:34:47;99137.53;;;1.97;100.00
60170;BME280;46042;49.444;6.862;2023-01-27T13:37:36;99138.41;;;1.96;100.00
60170;BME280;46042;49.444;6.862;2023-01-27T13:40:21;99142.91;;;1.88;100.00
60170;BME280;46042;49.444;6.862;2023-01-27T13:42:53;99140.28;;;1.89;100.00
60170;BME280;46042;49.444;6.862;2023-01-27T13:45:43;99139.41;;;1.90;100.00
60170;BME280;46042;49.444;6.862;2023-01-27T13:50:52;99139.47;;;1.89;100.00
60170;BME280;46042;49.444;6.862;2023-01-27T13:53:21;99150.75;;;1.86;100.00
60170;BME280;46042;49.444;6.862;2023-01-27T14:07:11;99151.59;;;1.88;100.00
60170;BME280;46042;49.444;6.862;2023-01-27T14:15:50;99163.75;;;1.44;100.00
60170;BME280;46042;49.444;6.862;2023-01-27T14:18:28;99161.94;;;1.49;100.00
60170;BME280;46042;49.444;6.862;2023-01-27T14:21:38;99161.94;;;1.49;100.00
60170;BME280;46042;49.444;6.862;2023-01-27T14:32:16;99172.56;;;1.36;100.00
60170;BME280;46042;49.444;6.862;2023-01-27T14:37:43;99176.88;;;1.36;100.00
60170;BME280;46042;49.444;6.862;2023-01-27T14:40:23;99175.16;;;1.36;100.00
60170;BME280;46042;49.444;6.862;2023-01-27T14:43:18;99176.00;;;1.37;100.00
60170;BME280;46042;49.444;6.862;2023-01-27T14:48:56;99171.94;;;1.23;100.00
60170;BME280;46042;49.444;6.862;2023-01-27T14:57:06;99191.16;;;1.13;100.00
60170;BME280;46042;49.444;6.862;2023-01-27T15:02:46;99186.94;;;1.07;100.00
60170;BME280;46042;49.444;6.862;2023-01-27T15:08:29;99193.97;;;1.02;100.00
60170;BME280;46042;49.444;6.862;2023-01-27T15:27:47;99209.66;;;0.94;100.00
60170;BME280;46042;49.444;6.862;2023-01-27T15:32:48;99216.63;;;0.91;100.00
60170;BME280;46042;49.444;6.862;2023-01-27T15:40:25;99223.66;;;0.84;100.00
60170;BME280;46042;49.444;6.862;2023-01-27T15:45:31;99224.53;;;0.83;100.00
60170;BME280;46042;49.444;6.862;2023-01-27T15:48:13;99232.31;;;0.84;100.00
60170;BME280;46042;49.444;6.862;2023-01-27T15:51:04;99237.47;;;0.86;100.00
60170;BME280;46042;49.444;6.862;2023-01-27T15:53:35;99247.06;;;0.81;100.00
60170;BME280;46042;49.444;6.862;2023-01-27T15:56:04;99244.41;;;0.84;100.00